sensor_id;sensor_type;location;lat;lon;timestamp;pressure;altitude;pressure_sealevel;temperature;humidity
61474;BME280;53694;49.784;30.150;2022-10-22T00:00:12;100279.85;;;3.05;65.53
61474;BME280;53694;49.784;30.150;2022-10-22T00:01:14;100278.25;;;3.04;65.57
61474;BME280;53694;49.784;30.150;2022-10-22T00:02:16;100275.53;;;3.04;65.64
61474;BME280;53694;49.784;30.150;2022-10-22T00:03:17;100268.50;;;3.03;65.62
61474;BME280;53694;49.784;30.150;2022-10-22T00:04:19;100279.05;;;3.04;65.61
61474;BME280;53694;49.784;30.150;2022-10-22T00:05:20;100263.87;;;3.03;65.78
61474;BME280;53694;49.784;30.150;2022-10-22T00:06:22;100270.11;;;3.04;65.66
61474;BME280;53694;49.784;30.150;2022-10-22T00:07:24;100273.93;;;3.03;65.73
61474;BME280;53694;49.784;30.150;2022-10-22T00:08:25;100272.82;;;3.04;65.67
61474;BME280;53694;49.784;30.150;2022-10-22T00:09:27;100263.08;;;3.03;65.78
61474;BME280;53694;49.784;30.150;2022-10-22T00:10:29;100261.44;;;3.01;65.76
61474;BME280;53694;49.784;30.150;2022-10-22T00:11:30;100257.65;;;3.03;65.79
61474;BME280;53694;49.784;30.150;2022-10-22T00:12:32;100253.83;;;3.04;65.77
61474;BME280;53694;49.784;30.150;2022-10-22T00:13:34;100248.40;;;3.04;65.85
61474;BME280;53694;49.784;30.150;2022-10-22T00:14:36;100247.59;;;3.03;65.75
61474;BME280;53694;49.784;30.150;2022-10-22T00:15:37;100249.51;;;3.03;65.78
61474;BME280;53694;49.784;30.150;2022-10-22T00:16:39;100242.17;;;3.03;65.91
61474;BME280;53694;49.784;30.150;2022-10-22T00:17:41;100241.37;;;3.03;65.95
61474;BME280;53694;49.784;30.150;2022-10-22T00:18:42;100240.26;;;3.04;66.03
61474;BME280;53694;49.784;30.150;2022-10-22T00:19:44;100244.58;;;3.05;65.91
61474;BME280;53694;49.784;30.150;2022-10-22T00:20:45;100240.26;;;3.04;65.98
61474;BME280;53694;49.784;30.150;2022-10-22T00:21:47;100245.10;;;3.07;65.91
61474;BME280;53694;49.784;30.150;2022-10-22T00:22:48;100241.59;;;3.06;65.83
61474;BME280;53694;49.784;30.150;2022-10-22T00:23:50;100242.08;;;3.08;65.82
61474;BME280;53694;49.784;30.150;2022-10-22T00:24:51;100240.17;;;3.09;65.83
61474;BME280;53694;49.784;30.150;2022-10-22T00:25:53;100241.77;;;3.10;65.82
61474;BME280;53694;49.784;30.150;2022-10-22T00:26:55;100242.61;;;3.10;65.83
61474;BME280;53694;49.784;30.150;2022-10-22T00:27:56;100245.02;;;3.12;65.88
61474;BME280;53694;49.784;30.150;2022-10-22T00:28:58;100235.77;;;3.13;65.76
61474;BME280;53694;49.784;30.150;2022-10-22T00:29:59;100235.17;;;3.16;65.88
61474;BME280;53694;49.784;30.150;2022-10-22T00:31:01;100237.89;;;3.16;65.79
61474;BME280;53694;49.784;30.150;2022-10-22T00:32:03;100239.50;;;3.17;65.83
61474;BME280;53694;49.784;30.150;2022-10-22T00:33:05;100232.95;;;3.18;65.79
61474;BME280;53694;49.784;30.150;2022-10-22T00:34:07;100229.16;;;3.19;65.76
61474;BME280;53694;49.784;30.150;2022-10-22T00:35:08;100231.57;;;3.20;65.76
61474;BME280;53694;49.784;30.150;2022-10-22T00:36:10;100221.52;;;3.21;65.72
61474;BME280;53694;49.784;30.150;2022-10-22T00:37:12;100213.37;;;3.21;65.81
61474;BME280;53694;49.784;30.150;2022-10-22T00:38:14;100216.89;;;3.21;65.80
61474;BME280;53694;49.784;30.150;2022-10-22T00:39:18;100206.83;;;3.22;65.80
61474;BME280;53694;49.784;30.150;2022-10-22T00:40:20;100198.69;;;3.22;65.73
61474;BME280;53694;49.784;30.150;2022-10-22T00:41:22;100201.92;;;3.24;65.77
61474;BME280;53694;49.784;30.150;2022-10-22T00:42:25;100200.02;;;3.24;65.81
61474;BME280;53694;49.784;30.150;2022-10-22T00:43:27;100199.70;;;3.26;65.78
61474;BME280;53694;49.784;30.150;2022-10-22T00:46:05;100195.08;;;3.26;65.73
61474;BME280;53694;49.784;30.150;2022-10-22T00:47:07;100185.86;;;3.28;65.76
61474;BME280;53694;49.784;30.150;2022-10-22T00:48:24;100179.31;;;3.29;65.71
61474;BME280;53694;49.784;30.150;2022-10-22T00:49:22;100180.11;;;3.29;65.64
61474;BME280;53694;49.784;30.150;2022-10-22T00:51:33;100179.52;;;3.32;65.81
61474;BME280;53694;49.784;30.150;2022-10-22T00:52:36;100180.33;;;3.33;65.75
61474;BME280;53694;49.784;30.150;2022-10-22T00:53:43;100182.73;;;3.34;65.62
61474;BME280;53694;49.784;30.150;2022-10-22T00:54:42;100185.97;;;3.36;65.63
61474;BME280;53694;49.784;30.150;2022-10-22T00:55:45;100180.53;;;3.36;65.66
61474;BME280;53694;49.784;30.150;2022-10-22T00:56:48;100179.42;;;3.37;65.79
61474;BME280;53694;49.784;30.150;2022-10-22T00:57:51;100182.63;;;3.39;65.72
61474;BME280;53694;49.784;30.150;2022-10-22T00:58:57;100181.55;;;3.40;65.73
61474;BME280;53694;49.784;30.150;2022-10-22T01:00:00;100178.84;;;3.40;65.56
61474;BME280;53694;49.784;30.150;2022-10-22T01:01:02;100161.43;;;3.41;65.53
61474;BME280;53694;49.784;30.150;2022-10-22T01:02:05;100166.86;;;3.41;65.49
61474;BME280;53694;49.784;30.150;2022-10-22T01:03:06;100173.89;;;3.42;65.48
61474;BME280;53694;49.784;30.150;2022-10-22T01:04:08;100171.18;;;3.42;65.46
61474;BME280;53694;49.784;30.150;2022-10-22T01:05:10;100168.77;;;3.41;65.51
61474;BME280;53694;49.784;30.150;2022-10-22T01:06:16;100172.30;;;3.41;65.56
61474;BME280;53694;49.784;30.150;2022-10-22T01:07:20;100166.86;;;3.41;65.51
61474;BME280;53694;49.784;30.150;2022-10-22T01:08:43;100159.83;;;3.40;65.58
61474;BME280;53694;49.784;30.150;2022-10-22T01:11:10;100147.33;;;3.39;65.61
61474;BME280;53694;49.784;30.150;2022-10-22T01:15:31;100166.66;;;3.38;65.68
61474;BME280;53694;49.784;30.150;2022-10-22T01:16:45;100161.53;;;3.36;65.74
61474;BME280;53694;49.784;30.150;2022-10-22T01:17:55;100159.90;;;3.35;65.88
61474;BME280;53694;49.784;30.150;2022-10-22T01:21:44;100157.80;;;3.32;66.00
61474;BME280;53694;49.784;30.150;2022-10-22T01:25:36;100148.86;;;3.32;66.08
61474;BME280;53694;49.784;30.150;2022-10-22T01:30:17;100140.51;;;3.28;66.39
61474;BME280;53694;49.784;30.150;2022-10-22T01:31:20;100147.02;;;3.27;66.46
61474;BME280;53694;49.784;30.150;2022-10-22T01:32:25;100136.47;;;3.25;66.47
61474;BME280;53694;49.784;30.150;2022-10-22T01:33:29;100144.61;;;3.25;66.56
61474;BME280;53694;49.784;30.150;2022-10-22T01:34:32;100145.41;;;3.26;66.53
61474;BME280;53694;49.784;30.150;2022-10-22T01:35:37;100148.93;;;3.26;66.53
61474;BME280;53694;49.784;30.150;2022-10-22T01:36:41;100142.70;;;3.26;66.51
61474;BME280;53694;49.784;30.150;2022-10-22T01:37:49;100141.09;;;3.25;66.46
61474;BME280;53694;49.784;30.150;2022-10-22T01:38:52;100140.30;;;3.24;66.44
61474;BME280;53694;49.784;30.150;2022-10-22T01:39:56;100138.38;;;3.25;66.44
61474;BME280;53694;49.784;30.150;2022-10-22T01:40:59;100146.84;;;3.23;66.53
61474;BME280;53694;49.784;30.150;2022-10-22T01:42:01;100149.55;;;3.23;66.58
61474;BME280;53694;49.784;30.150;2022-10-22T01:43:05;100152.27;;;3.23;66.59
61474;BME280;53694;49.784;30.150;2022-10-22T01:44:21;100161.20;;;3.24;66.55
61474;BME280;53694;49.784;30.150;2022-10-22T01:45:13;100161.20;;;3.24;66.54
61474;BME280;53694;49.784;30.150;2022-10-22T01:46:17;100151.16;;;3.24;66.57
61474;BME280;53694;49.784;30.150;2022-10-22T01:47:38;100145.72;;;3.24;66.55
61474;BME280;53694;49.784;30.150;2022-10-22T01:53:12;100148.23;;;3.21;66.90
61474;BME280;53694;49.784;30.150;2022-10-22T01:54:34;100149.34;;;3.20;66.89
61474;BME280;53694;49.784;30.150;2022-10-22T01:56:52;100149.13;;;3.16;67.00
61474;BME280;53694;49.784;30.150;2022-10-22T02:03:39;100140.47;;;3.14;67.14
61474;BME280;53694;49.784;30.150;2022-10-22T02:04:47;100127.20;;;3.13;67.25
61474;BME280;53694;49.784;30.150;2022-10-22T02:05:52;100131.03;;;3.12;67.26
61474;BME280;53694;49.784;30.150;2022-10-22T02:06:57;100129.92;;;3.13;67.28
61474;BME280;53694;49.784;30.150;2022-10-22T02:08:03;100121.78;;;3.13;67.37
61474;BME280;53694;49.784;30.150;2022-10-22T02:09:06;100119.06;;;3.13;67.30
61474;BME280;53694;49.784;30.150;2022-10-22T02:10:09;100116.04;;;3.14;67.36
61474;BME280;53694;49.784;30.150;2022-10-22T02:11:12;100114.16;;;3.15;67.29
61474;BME280;53694;49.784;30.150;2022-10-22T02:12:16;100116.04;;;3.14;67.37
61474;BME280;53694;49.784;30.150;2022-10-22T02:13:29;100102.47;;;3.14;67.34
61474;BME280;53694;49.784;30.150;2022-10-22T02:14:28;100107.09;;;3.14;67.42
61474;BME280;53694;49.784;30.150;2022-10-22T02:15:31;100104.69;;;3.12;67.46
61474;BME280;53694;49.784;30.150;2022-10-22T02:16:40;100108.20;;;3.13;67.54
61474;BME280;53694;49.784;30.150;2022-10-22T02:17:44;100107.89;;;3.14;67.45
61474;BME280;53694;49.784;30.150;2022-10-22T02:18:48;100108.73;;;3.15;67.48
61474;BME280;53694;49.784;30.150;2022-10-22T02:19:57;100108.11;;;3.18;67.51
61474;BME280;53694;49.784;30.150;2022-10-22T02:21:00;100113.53;;;3.18;67.45
61474;BME280;53694;49.784;30.150;2022-10-22T02:22:02;100121.40;;;3.19;67.38
61474;BME280;53694;49.784;30.150;2022-10-22T02:23:04;100126.02;;;3.19;67.38
61474;BME280;53694;49.784;30.150;2022-10-22T02:24:06;100133.05;;;3.20;67.38
61474;BME280;53694;49.784;30.150;2022-10-22T02:25:08;100119.48;;;3.20;67.40
61474;BME280;53694;49.784;30.150;2022-10-22T02:26:18;100127.63;;;3.20;67.37
61474;BME280;53694;49.784;30.150;2022-10-22T02:27:34;100127.63;;;3.20;67.39
61474;BME280;53694;49.784;30.150;2022-10-22T02:28:40;100127.63;;;3.20;67.42
61474;BME280;53694;49.784;30.150;2022-10-22T02:29:46;100128.43;;;3.20;67.42
61474;BME280;53694;49.784;30.150;2022-10-22T02:30:47;100123.80;;;3.21;67.40
61474;BME280;53694;49.784;30.150;2022-10-22T02:31:50;100123.80;;;3.21;67.38
61474;BME280;53694;49.784;30.150;2022-10-22T02:34:04;100119.17;;;3.21;67.38
61474;BME280;53694;49.784;30.150;2022-10-22T02:35:08;100115.66;;;3.21;67.38
61474;BME280;53694;49.784;30.150;2022-10-22T02:36:12;100119.97;;;3.22;67.38
61474;BME280;53694;49.784;30.150;2022-10-22T02:37:16;100116.45;;;3.21;67.39
61474;BME280;53694;49.784;30.150;2022-10-22T02:38:19;100113.75;;;3.21;67.50
61474;BME280;53694;49.784;30.150;2022-10-22T02:39:22;100118.37;;;3.21;67.51
61474;BME280;53694;49.784;30.150;2022-10-22T02:40:25;100114.86;;;3.20;67.45
61474;BME280;53694;49.784;30.150;2022-10-22T02:41:28;100116.77;;;3.20;67.43
61474;BME280;53694;49.784;30.150;2022-10-22T02:42:30;100112.94;;;3.21;67.46
61474;BME280;53694;49.784;30.150;2022-10-22T02:43:44;100109.92;;;3.22;67.47
61474;BME280;53694;49.784;30.150;2022-10-22T02:44:37;100098.27;;;3.22;67.38
61474;BME280;53694;49.784;30.150;2022-10-22T02:45:39;100101.28;;;3.20;67.30
61474;BME280;53694;49.784;30.150;2022-10-22T02:46:42;100099.38;;;3.21;67.38
61474;BME280;53694;49.784;30.150;2022-10-22T02:47:43;100105.91;;;3.20;67.39
61474;BME280;53694;49.784;30.150;2022-10-22T02:48:45;100103.20;;;3.20;67.40
61474;BME280;53694;49.784;30.150;2022-10-22T02:49:50;100104.31;;;3.19;67.40
61474;BME280;53694;49.784;30.150;2022-10-22T02:50:51;100108.91;;;3.18;67.37
61474;BME280;53694;49.784;30.150;2022-10-22T02:51:53;100088.72;;;3.11;67.40
61474;BME280;53694;49.784;30.150;2022-10-22T02:52:54;100101.08;;;3.17;67.34
61474;BME280;53694;49.784;30.150;2022-10-22T02:53:56;100102.19;;;3.16;67.44
61474;BME280;53694;49.784;30.150;2022-10-22T02:54:58;100090.53;;;3.15;67.45
61474;BME280;53694;49.784;30.150;2022-10-22T02:55:59;100097.05;;;3.14;67.45
61474;BME280;53694;49.784;30.150;2022-10-22T02:57:01;100087.61;;;3.12;67.52
61474;BME280;53694;49.784;30.150;2022-10-22T02:58:03;100086.01;;;3.11;67.53
61474;BME280;53694;49.784;30.150;2022-10-22T02:59:04;100079.78;;;3.10;67.59
61474;BME280;53694;49.784;30.150;2022-10-22T03:00:08;100084.37;;;3.10;67.59
61474;BME280;53694;49.784;30.150;2022-10-22T03:01:10;100081.97;;;3.08;67.62
61474;BME280;53694;49.784;30.150;2022-10-22T03:02:11;100086.59;;;3.08;67.64
61474;BME280;53694;49.784;30.150;2022-10-22T03:03:13;100091.23;;;3.07;67.64
61474;BME280;53694;49.784;30.150;2022-10-22T03:04:14;100093.94;;;3.07;67.66
61474;BME280;53694;49.784;30.150;2022-10-22T03:05:16;100096.13;;;3.05;67.56
61474;BME280;53694;49.784;30.150;2022-10-22T03:06:18;100102.36;;;3.06;67.61
61474;BME280;53694;49.784;30.150;2022-10-22T03:07:19;100102.36;;;3.06;67.61
61474;BME280;53694;49.784;30.150;2022-10-22T03:08:21;100093.42;;;3.05;67.54
61474;BME280;53694;49.784;30.150;2022-10-22T03:09:22;100096.13;;;3.05;67.57
61474;BME280;53694;49.784;30.150;2022-10-22T03:10:24;100094.22;;;3.06;67.58
61474;BME280;53694;49.784;30.150;2022-10-22T03:11:26;100104.27;;;3.05;67.63
61474;BME280;53694;49.784;30.150;2022-10-22T03:12:27;100104.27;;;3.05;67.58
61474;BME280;53694;49.784;30.150;2022-10-22T03:13:29;100096.13;;;3.05;67.58
61474;BME280;53694;49.784;30.150;2022-10-22T03:14:30;100085.59;;;3.04;67.67
61474;BME280;53694;49.784;30.150;2022-10-22T03:15:32;100091.02;;;3.04;67.63
61474;BME280;53694;49.784;30.150;2022-10-22T03:16:33;100093.73;;;3.04;67.59
61474;BME280;53694;49.784;30.150;2022-10-22T03:17:35;100093.73;;;3.04;67.58
61474;BME280;53694;49.784;30.150;2022-10-22T03:18:36;100099.16;;;3.04;67.56
61474;BME280;53694;49.784;30.150;2022-10-22T03:19:38;100088.30;;;3.04;67.60
61474;BME280;53694;49.784;30.150;2022-10-22T03:20:39;100085.59;;;3.04;67.53
61474;BME280;53694;49.784;30.150;2022-10-22T03:22:03;100101.87;;;3.04;67.55
61474;BME280;53694;49.784;30.150;2022-10-22T03:23:01;100085.59;;;3.04;67.62
61474;BME280;53694;49.784;30.150;2022-10-22T03:24:07;100088.61;;;3.02;67.54
61474;BME280;53694;49.784;30.150;2022-10-22T03:25:15;100088.61;;;3.02;67.57
61474;BME280;53694;49.784;30.150;2022-10-22T03:26:17;100098.64;;;3.01;67.63
61474;BME280;53694;49.784;30.150;2022-10-22T03:27:20;100080.75;;;3.00;67.65
61474;BME280;53694;49.784;30.150;2022-10-22T03:28:22;100079.95;;;3.00;67.64
61474;BME280;53694;49.784;30.150;2022-10-22T03:29:25;100072.13;;;2.98;67.68
61474;BME280;53694;49.784;30.150;2022-10-22T03:30:27;100079.73;;;2.96;67.64
61474;BME280;53694;49.784;30.150;2022-10-22T03:31:29;100070.00;;;2.95;67.71
61474;BME280;53694;49.784;30.150;2022-10-22T03:32:30;100073.83;;;2.94;67.76
61474;BME280;53694;49.784;30.150;2022-10-22T03:33:32;100067.87;;;2.92;67.83
61474;BME280;53694;49.784;30.150;2022-10-22T03:34:34;100070.59;;;2.92;67.86
61474;BME280;53694;49.784;30.150;2022-10-22T03:35:39;100068.98;;;2.91;67.88
61474;BME280;53694;49.784;30.150;2022-10-22T03:36:41;100070.10;;;2.90;67.87
61474;BME280;53694;49.784;30.150;2022-10-22T03:37:42;100064.67;;;2.90;67.89
61474;BME280;53694;49.784;30.150;2022-10-22T03:38:44;100067.39;;;2.90;67.82
61474;BME280;53694;49.784;30.150;2022-10-22T03:39:46;100069.30;;;2.90;67.93
61474;BME280;53694;49.784;30.150;2022-10-22T03:40:47;100066.87;;;2.88;67.80
61474;BME280;53694;49.784;30.150;2022-10-22T03:41:50;100069.30;;;2.90;67.77
61474;BME280;53694;49.784;30.150;2022-10-22T03:42:52;100061.44;;;2.88;67.83
61474;BME280;53694;49.784;30.150;2022-10-22T03:43:54;100057.92;;;2.88;67.90
61474;BME280;53694;49.784;30.150;2022-10-22T03:44:56;100058.73;;;2.88;67.83
61474;BME280;53694;49.784;30.150;2022-10-22T03:45:57;100060.95;;;2.86;67.88
61474;BME280;53694;49.784;30.150;2022-10-22T03:46:59;100050.90;;;2.87;67.86
61474;BME280;53694;49.784;30.150;2022-10-22T03:48:00;100058.23;;;2.86;67.82
61474;BME280;53694;49.784;30.150;2022-10-22T03:49:01;100056.33;;;2.87;67.81
61474;BME280;53694;49.784;30.150;2022-10-22T03:50:04;100057.13;;;2.87;67.74
61474;BME280;53694;49.784;30.150;2022-10-22T03:51:06;100051.39;;;2.89;67.72
61474;BME280;53694;49.784;30.150;2022-10-22T03:52:09;100056.02;;;2.88;67.73
61474;BME280;53694;49.784;30.150;2022-10-22T03:53:11;100048.98;;;2.87;67.78
61474;BME280;53694;49.784;30.150;2022-10-22T03:54:14;100056.02;;;2.88;67.81
61474;BME280;53694;49.784;30.150;2022-10-22T03:55:16;100056.02;;;2.88;67.71
61474;BME280;53694;49.784;30.150;2022-10-22T03:56:18;100054.94;;;2.89;67.73
61474;BME280;53694;49.784;30.150;2022-10-22T03:57:19;100056.02;;;2.88;67.72
61474;BME280;53694;49.784;30.150;2022-10-22T03:58:21;100057.92;;;2.88;67.80
61474;BME280;53694;49.784;30.150;2022-10-22T03:59:22;100051.70;;;2.87;67.78
61474;BME280;53694;49.784;30.150;2022-10-22T04:00:24;100054.41;;;2.87;67.75
61474;BME280;53694;49.784;30.150;2022-10-22T04:01:28;100050.90;;;2.87;67.77
61474;BME280;53694;49.784;30.150;2022-10-22T04:02:30;100052.81;;;2.86;67.79
61474;BME280;53694;49.784;30.150;2022-10-22T04:03:31;100051.20;;;2.85;67.88
61474;BME280;53694;49.784;30.150;2022-10-22T04:04:34;100057.44;;;2.86;67.93
61474;BME280;53694;49.784;30.150;2022-10-22T04:05:35;100051.20;;;2.85;67.88
61474;BME280;53694;49.784;30.150;2022-10-22T04:06:37;100044.98;;;2.85;67.85
61474;BME280;53694;49.784;30.150;2022-10-22T04:07:38;100048.50;;;2.85;67.89
61474;BME280;53694;49.784;30.150;2022-10-22T04:08:42;100039.56;;;2.85;67.87
61474;BME280;53694;49.784;30.150;2022-10-22T04:09:43;100042.27;;;2.85;67.86
61474;BME280;53694;49.784;30.150;2022-10-22T04:10:50;100044.98;;;2.85;67.86
61474;BME280;53694;49.784;30.150;2022-10-22T04:11:51;100037.64;;;2.85;67.85
61474;BME280;53694;49.784;30.150;2022-10-22T04:12:53;100039.56;;;2.85;67.87
61474;BME280;53694;49.784;30.150;2022-10-22T04:13:55;100034.94;;;2.85;67.91
61474;BME280;53694;49.784;30.150;2022-10-22T04:14:56;100039.25;;;2.86;67.94
61474;BME280;53694;49.784;30.150;2022-10-22T04:16:12;100036.53;;;2.86;67.88
61474;BME280;53694;49.784;30.150;2022-10-22T04:17:14;100031.11;;;2.86;67.92
61474;BME280;53694;49.784;30.150;2022-10-22T04:18:19;100037.34;;;2.87;67.90
61474;BME280;53694;49.784;30.150;2022-10-22T04:19:21;100037.34;;;2.87;67.86
61474;BME280;53694;49.784;30.150;2022-10-22T04:20:23;100032.71;;;2.87;67.93
61474;BME280;53694;49.784;30.150;2022-10-22T04:21:24;100032.71;;;2.87;68.00
61474;BME280;53694;49.784;30.150;2022-10-22T04:22:26;100028.09;;;2.88;67.97
61474;BME280;53694;49.784;30.150;2022-10-22T04:23:27;100024.57;;;2.87;68.02
61474;BME280;53694;49.784;30.150;2022-10-22T04:24:30;100026.17;;;2.88;68.00
61474;BME280;53694;49.784;30.150;2022-10-22T04:25:32;100024.57;;;2.87;68.06
61474;BME280;53694;49.784;30.150;2022-10-22T04:26:33;100019.14;;;2.87;68.11
61474;BME280;53694;49.784;30.150;2022-10-22T04:27:35;100013.83;;;2.82;68.09
61474;BME280;53694;49.784;30.150;2022-10-22T04:28:37;100022.66;;;2.88;68.12
61474;BME280;53694;49.784;30.150;2022-10-22T04:29:38;100029.69;;;2.89;68.16
61474;BME280;53694;49.784;30.150;2022-10-22T04:30:40;100023.46;;;2.88;68.14
61474;BME280;53694;49.784;30.150;2022-10-22T04:31:41;100021.55;;;2.89;68.18
61474;BME280;53694;49.784;30.150;2022-10-22T04:32:43;100025.09;;;2.89;68.16
61474;BME280;53694;49.784;30.150;2022-10-22T04:33:44;100032.12;;;2.90;68.16
61474;BME280;53694;49.784;30.150;2022-10-22T04:34:46;100028.30;;;2.91;68.19
61474;BME280;53694;49.784;30.150;2022-10-22T04:35:47;100032.12;;;2.90;68.17
61474;BME280;53694;49.784;30.150;2022-10-22T04:36:49;100025.89;;;2.90;68.19
61474;BME280;53694;49.784;30.150;2022-10-22T04:37:50;100029.89;;;2.92;68.18
61474;BME280;53694;49.784;30.150;2022-10-22T04:38:54;100021.76;;;2.92;68.19
61474;BME280;53694;49.784;30.150;2022-10-22T04:39:56;100016.33;;;2.92;68.18
61474;BME280;53694;49.784;30.150;2022-10-22T04:41:13;100017.97;;;2.93;68.22
61474;BME280;53694;49.784;30.150;2022-10-22T04:42:11;100023.08;;;2.95;68.18
61474;BME280;53694;49.784;30.150;2022-10-22T04:43:13;100016.05;;;2.94;68.24
61474;BME280;53694;49.784;30.150;2022-10-22T04:44:14;100016.85;;;2.94;68.23
61474;BME280;53694;49.784;30.150;2022-10-22T04:45:16;100028.50;;;2.95;68.25
61474;BME280;53694;49.784;30.150;2022-10-22T04:46:18;100017.65;;;2.95;68.25
61474;BME280;53694;49.784;30.150;2022-10-22T04:47:19;100016.85;;;2.94;68.24
61474;BME280;53694;49.784;30.150;2022-10-22T04:48:21;100021.48;;;2.94;68.30
61474;BME280;53694;49.784;30.150;2022-10-22T04:49:22;100015.73;;;2.95;68.26
61474;BME280;53694;49.784;30.150;2022-10-22T04:50:24;100017.05;;;2.98;68.33
61474;BME280;53694;49.784;30.150;2022-10-22T04:51:26;100021.38;;;2.99;68.24
61474;BME280;53694;49.784;30.150;2022-10-22T04:52:28;100029.20;;;3.00;68.24
61474;BME280;53694;49.784;30.150;2022-10-22T04:53:29;100021.06;;;3.00;68.35
61474;BME280;53694;49.784;30.150;2022-10-22T04:54:31;100022.66;;;3.01;68.31
61474;BME280;53694;49.784;30.150;2022-10-22T04:55:32;100028.09;;;3.01;68.29
61474;BME280;53694;49.784;30.150;2022-10-22T04:56:34;100025.09;;;3.03;68.30
61474;BME280;53694;49.784;30.150;2022-10-22T04:57:36;100025.09;;;3.03;68.23
61474;BME280;53694;49.784;30.150;2022-10-22T04:58:38;100022.06;;;3.05;68.20
61474;BME280;53694;49.784;30.150;2022-10-22T04:59:39;100023.66;;;3.06;68.35
61474;BME280;53694;49.784;30.150;2022-10-22T05:00:41;100030.72;;;3.07;68.34
61474;BME280;53694;49.784;30.150;2022-10-22T05:01:43;100029.61;;;3.08;68.24
61474;BME280;53694;49.784;30.150;2022-10-22T05:02:49;100026.90;;;3.08;68.20
61474;BME280;53694;49.784;30.150;2022-10-22T05:03:52;100024.67;;;3.10;68.22
61474;BME280;53694;49.784;30.150;2022-10-22T05:04:54;100019.25;;;3.10;68.25
61474;BME280;53694;49.784;30.150;2022-10-22T05:05:59;100020.08;;;3.10;68.29
61474;BME280;53694;49.784;30.150;2022-10-22T05:07:01;100022.48;;;3.12;68.23
61474;BME280;53694;49.784;30.150;2022-10-22T05:08:03;100022.96;;;3.14;68.28
61474;BME280;53694;49.784;30.150;2022-10-22T05:09:06;100021.05;;;3.14;68.26
61474;BME280;53694;49.784;30.150;2022-10-22T05:10:09;100012.63;;;3.16;68.28
61474;BME280;53694;49.784;30.150;2022-10-22T05:11:16;100016.94;;;3.17;68.21
61474;BME280;53694;49.784;30.150;2022-10-22T05:12:18;100020.17;;;3.19;68.26
61474;BME280;53694;49.784;30.150;2022-10-22T05:13:19;100009.80;;;3.21;68.26
61474;BME280;53694;49.784;30.150;2022-10-22T05:14:23;100022.27;;;3.22;68.28
61474;BME280;53694;49.784;30.150;2022-10-22T05:15:25;100021.66;;;3.25;68.20
61474;BME280;53694;49.784;30.150;2022-10-22T05:16:28;100024.86;;;3.27;68.14
61474;BME280;53694;49.784;30.150;2022-10-22T05:17:29;100022.67;;;3.29;68.08
61474;BME280;53694;49.784;30.150;2022-10-22T05:18:34;100031.81;;;3.33;68.05
61474;BME280;53694;49.784;30.150;2022-10-22T05:19:35;100026.07;;;3.35;67.99
61474;BME280;53694;49.784;30.150;2022-10-22T05:20:40;100025.47;;;3.38;67.97
61474;BME280;53694;49.784;30.150;2022-10-22T05:21:42;100022.44;;;3.39;67.87
61474;BME280;53694;49.784;30.150;2022-10-22T05:22:44;100031.10;;;3.41;67.86
61474;BME280;53694;49.784;30.150;2022-10-22T05:23:47;100026.16;;;3.43;67.85
61474;BME280;53694;49.784;30.150;2022-10-22T05:24:49;100022.84;;;3.46;67.86
61474;BME280;53694;49.784;30.150;2022-10-22T05:25:50;100022.53;;;3.48;67.87
61474;BME280;53694;49.784;30.150;2022-10-22T05:26:54;100023.84;;;3.50;67.91
61474;BME280;53694;49.784;30.150;2022-10-22T05:27:56;100021.64;;;3.53;67.93
61474;BME280;53694;49.784;30.150;2022-10-22T05:28:57;100019.41;;;3.55;67.90
61474;BME280;53694;49.784;30.150;2022-10-22T05:29:58;100025.33;;;3.57;67.93
61474;BME280;53694;49.784;30.150;2022-10-22T05:31:01;100020.73;;;3.57;67.94
61474;BME280;53694;49.784;30.150;2022-10-22T05:32:03;100025.84;;;3.59;68.02
61474;BME280;53694;49.784;30.150;2022-10-22T05:33:05;100019.01;;;3.61;67.92
61474;BME280;53694;49.784;30.150;2022-10-22T05:34:06;100015.98;;;3.63;67.95
61474;BME280;53694;49.784;30.150;2022-10-22T05:35:08;100021.09;;;3.64;67.94
61474;BME280;53694;49.784;30.150;2022-10-22T05:36:16;100013.46;;;3.66;67.95
61474;BME280;53694;49.784;30.150;2022-10-22T05:37:18;100013.14;;;3.68;67.87
61474;BME280;53694;49.784;30.150;2022-10-22T05:38:20;100012.02;;;3.69;68.03
61474;BME280;53694;49.784;30.150;2022-10-22T05:39:21;100003.27;;;3.72;67.94
61474;BME280;53694;49.784;30.150;2022-10-22T05:40:23;100009.22;;;3.74;68.01
61474;BME280;53694;49.784;30.150;2022-10-22T05:41:27;100015.94;;;3.76;67.98
61474;BME280;53694;49.784;30.150;2022-10-22T05:42:32;100016.13;;;3.80;67.91
61474;BME280;53694;49.784;30.150;2022-10-22T05:43:34;100012.30;;;3.81;67.96
61474;BME280;53694;49.784;30.150;2022-10-22T05:44:36;100013.89;;;3.82;67.92
61474;BME280;53694;49.784;30.150;2022-10-22T05:45:40;100010.58;;;3.85;68.02
61474;BME280;53694;49.784;30.150;2022-10-22T05:46:41;100009.45;;;3.86;67.95
61474;BME280;53694;49.784;30.150;2022-10-22T05:47:43;100010.77;;;3.89;67.93
61474;BME280;53694;49.784;30.150;2022-10-22T05:48:50;100012.08;;;3.91;68.00
61474;BME280;53694;49.784;30.150;2022-10-22T05:49:52;100009.84;;;3.93;67.97
61474;BME280;53694;49.784;30.150;2022-10-22T05:50:53;100013.87;;;3.96;67.96
61474;BME280;53694;49.784;30.150;2022-10-22T05:51:55;100017.88;;;3.98;67.88
61474;BME280;53694;49.784;30.150;2022-10-22T05:52:56;100009.11;;;4.01;67.77
61474;BME280;53694;49.784;30.150;2022-10-22T05:54:00;100019.38;;;4.05;67.67
61474;BME280;53694;49.784;30.150;2022-10-22T05:55:02;100025.29;;;4.07;67.78
61474;BME280;53694;49.784;30.150;2022-10-22T05:56:07;100014.93;;;4.09;67.76
61474;BME280;53694;49.784;30.150;2022-10-22T05:57:08;100016.53;;;4.10;67.75
61474;BME280;53694;49.784;30.150;2022-10-22T05:58:11;100015.92;;;4.13;67.83